Time;durP1;ratioP1;P1;durP2;ratioP2;P2;SDS_P1;SDS_P2;PMS_P1;PMS_P2;Temp;Humidity;BMP_temperature;BMP_pressure;BME280_temperature;BME280_humidity;BME280_pressure;Samples;Min_cycle;Max_cycle;Signal;HPM_P1;HPM_P2
2023/10/04 00:01:45;;;;;;;1.25;0.82;;;;;;;;;;5068359;28;20039;-71
2023/10/04 00:04:10;;;;;;;3.25;1.40;;;;;;;;;;5065771;28;20463;-71
2023/10/04 00:06:36;;;;;;;1.70;0.93;;;;;;;;;;5058462;28;20041;-71
2023/10/04 00:09:03;;;;;;;1.70;1.40;;;;;;;;;;5067491;28;20115;-70
2023/10/04 00:11:29;;;;;;;2.53;1.20;;;;;;;;;;5072523;28;20583;-70
2023/10/04 00:13:55;;;;;;;2.08;1.35;;;;;;;;;;5061437;28;20036;-70
2023/10/04 00:16:20;;;;;;;2.65;1.40;;;;;;;;;;5067077;28;20410;-70
2023/10/04 00:18:46;;;;;;;2.60;1.55;;;;;;;;;;5070437;28;20133;-71
2023/10/04 00:21:11;;;;;;;4.30;1.50;;;;;;;;;;5051407;28;20095;-71
2023/10/04 00:23:38;;;;;;;1.20;0.90;;;;;;;;;;5070145;28;20500;-71
2023/10/04 00:26:07;;;;;;;3.03;1.38;;;;;;;;;;5066121;28;20048;-71
2023/10/04 00:28:32;;;;;;;3.80;1.60;;;;;;;;;;5067914;28;20103;-71
2023/10/04 00:30:58;;;;;;;2.78;1.20;;;;;;;;;;5065608;28;20047;-70
2023/10/04 00:33:23;;;;;;;1.92;1.33;;;;;;;;;;5063999;28;20123;-70
2023/10/04 00:35:50;;;;;;;2.80;1.60;;;;;;;;;;5061397;28;20044;-70
2023/10/04 00:38:17;;;;;;;3.47;1.50;;;;;;;;;;5070434;28;20094;-71
2023/10/04 00:40:43;;;;;;;2.50;1.27;;;;;;;;;;5067016;28;20044;-71
2023/10/04 00:43:13;;;;;;;3.53;1.30;;;;;;;;;;5066848;28;20039;-70
2023/10/04 00:45:41;;;;;;;3.30;1.50;;;;;;;;;;5066769;28;20064;-70
2023/10/04 00:48:17;;;;;;;2.97;1.52;;;;;;;;;;5054660;28;20443;-70
2023/10/04 00:50:44;;;;;;;5.60;1.90;;;;;;;;;;5066123;28;20040;-70
2023/10/04 00:53:13;;;;;;;3.80;1.48;;;;;;;;;;5070538;28;20036;-71
2023/10/04 00:55:44;;;;;;;2.60;1.23;;;;;;;;;;5062350;28;20040;-70
2023/10/04 00:58:14;;;;;;;1.98;1.00;;;;;;;;;;5052438;28;20118;-71
2023/10/04 01:00:45;;;;;;;2.17;1.40;;;;;;;;;;5058041;28;20127;-73
2023/10/04 01:03:11;;;;;;;1.40;1.15;;;;;;;;;;5071477;28;20060;-69
2023/10/04 01:05:40;;;;;;;1.75;0.90;;;;;;;;;;5068334;28;20036;-70
2023/10/04 01:08:06;;;;;;;2.50;0.85;;;;;;;;;;5066017;28;20044;-71
2023/10/04 01:10:37;;;;;;;2.42;1.00;;;;;;;;;;5071217;28;20170;-71
2023/10/04 01:13:05;;;;;;;2.05;1.20;;;;;;;;;;5056449;28;20036;-71
2023/10/04 01:15:36;;;;;;;3.47;1.15;;;;;;;;;;5061877;28;20104;-71
2023/10/04 01:18:06;;;;;;;1.45;1.00;;;;;;;;;;5060813;28;20037;-73
2023/10/04 01:20:33;;;;;;;2.47;1.42;;;;;;;;;;5068343;28;20036;-74
2023/10/04 01:23:06;;;;;;;1.95;1.10;;;;;;;;;;5065508;28;20082;-71
2023/10/04 01:25:35;;;;;;;3.90;1.10;;;;;;;;;;5056975;28;20037;-71
2023/10/04 01:28:07;;;;;;;4.63;1.60;;;;;;;;;;5067734;28;20401;-71
2023/10/04 01:30:33;;;;;;;4.72;1.33;;;;;;;;;;5069020;28;20078;-71
2023/10/04 01:33:02;;;;;;;2.20;1.05;;;;;;;;;;5049065;28;20485;-71
2023/10/04 01:35:28;;;;;;;3.38;1.52;;;;;;;;;;5063215;28;20033;-74
2023/10/04 01:37:53;;;;;;;2.63;1.10;;;;;;;;;;5049154;28;20141;-71
2023/10/04 01:40:24;;;;;;;3.80;1.25;;;;;;;;;;5063110;28;20681;-71
2023/10/04 01:42:50;;;;;;;4.20;1.52;;;;;;;;;;5065151;28;20029;-71
2023/10/04 01:45:18;;;;;;;3.80;1.77;;;;;;;;;;5069053;28;21534;-71
2023/10/04 01:47:44;;;;;;;3.63;1.48;;;;;;;;;;5064628;28;20036;-71
2023/10/04 01:50:10;;;;;;;4.10;1.40;;;;;;;;;;5050731;28;20051;-71
2023/10/04 01:52:38;;;;;;;2.40;1.00;;;;;;;;;;5050859;28;20595;-73
2023/10/04 01:55:10;;;;;;;4.47;1.15;;;;;;;;;;5060042;28;20385;-71
2023/10/04 01:57:38;;;;;;;1.73;0.93;;;;;;;;;;5063463;28;20044;-71
2023/10/04 02:00:04;;;;;;;2.15;1.23;;;;;;;;;;5064875;28;20574;-70
2023/10/04 02:02:29;;;;;;;2.53;1.10;;;;;;;;;;5065362;28;21964;-71
2023/10/04 02:04:55;;;;;;;3.13;1.45;;;;;;;;;;5052959;28;20177;-70
2023/10/04 02:07:24;;;;;;;5.25;1.60;;;;;;;;;;5044236;28;20033;-71
2023/10/04 02:09:51;;;;;;;5.93;1.33;;;;;;;;;;5066634;28;20059;-71
2023/10/04 02:12:18;;;;;;;2.75;1.45;;;;;;;;;;5063773;28;20040;-71
2023/10/04 02:14:47;;;;;;;2.08;1.23;;;;;;;;;;5067195;28;20510;-71
2023/10/04 02:17:16;;;;;;;3.55;1.00;;;;;;;;;;5065640;28;20032;-71
2023/10/04 02:19:42;;;;;;;4.47;1.50;;;;;;;;;;5059831;28;20277;-71
2023/10/04 02:22:08;;;;;;;2.47;1.30;;;;;;;;;;5064176;28;20099;-71
2023/10/04 02:24:35;;;;;;;2.25;1.27;;;;;;;;;;5065690;28;20404;-71
2023/10/04 02:27:06;;;;;;;1.83;1.00;;;;;;;;;;5066334;28;20047;-71
2023/10/04 02:29:33;;;;;;;;;;;;;;;;;;5063396;28;20063;-71
2023/10/04 02:31:58;;;;;;;2.58;1.10;;;;;;;;;;5046364;28;20517;-71
2023/10/04 02:34:24;;;;;;;1.30;0.88;;;;;;;;;;5066850;28;20036;-71
2023/10/04 02:36:51;;;;;;;3.65;1.60;;;;;;;;;;5066689;28;20064;-71
2023/10/04 02:39:17;;;;;;;2.50;1.20;;;;;;;;;;5046708;28;20110;-71
2023/10/04 02:41:47;;;;;;;3.00;1.20;;;;;;;;;;5062475;28;20040;-71
2023/10/04 02:44:17;;;;;;;3.05;0.98;;;;;;;;;;5065815;28;20040;-72
2023/10/04 02:46:44;;;;;;;1.42;1.20;;;;;;;;;;5049165;28;20484;-73
2023/10/04 02:49:10;;;;;;;1.83;1.10;;;;;;;;;;5069767;28;20120;-73
2023/10/04 02:51:35;;;;;;;1.25;1.00;;;;;;;;;;5073604;28;20115;-73
2023/10/04 02:54:02;;;;;;;3.72;1.58;;;;;;;;;;5061146;28;20042;-73
2023/10/04 02:56:27;;;;;;;3.25;1.50;;;;;;;;;;5063963;28;20086;-73
2023/10/04 02:58:53;;;;;;;3.00;1.27;;;;;;;;;;5064913;28;20750;-73
2023/10/04 03:01:26;;;;;;;3.63;1.50;;;;;;;;;;5061394;28;20046;-73
2023/10/04 03:03:52;;;;;;;1.85;1.13;;;;;;;;;;5063939;28;20124;-72
2023/10/04 03:06:22;;;;;;;4.97;1.65;;;;;;;;;;5069540;28;20112;-73
2023/10/04 03:08:50;;;;;;;2.67;1.55;;;;;;;;;;5066172;28;20051;-73
2023/10/04 03:11:16;;;;;;;4.75;1.55;;;;;;;;;;5070370;28;20041;-73
2023/10/04 03:13:41;;;;;;;4.63;1.75;;;;;;;;;;5057648;28;20054;-73
2023/10/04 03:16:07;;;;;;;4.55;1.88;;;;;;;;;;5069817;28;20048;-73
2023/10/04 03:18:35;;;;;;;4.82;1.33;;;;;;;;;;5071356;28;20036;-72
2023/10/04 03:21:10;;;;;;;1.50;1.15;;;;;;;;;;5068657;28;20032;-72
2023/10/04 03:23:36;;;;;;;5.05;1.85;;;;;;;;;;5071256;28;20256;-72
2023/10/04 03:26:03;;;;;;;4.00;1.80;;;;;;;;;;5052552;28;20076;-72
2023/10/04 03:28:33;;;;;;;2.40;1.27;;;;;;;;;;5060035;28;20041;-73
2023/10/04 03:31:02;;;;;;;5.13;2.05;;;;;;;;;;5056232;28;20559;-72
2023/10/04 03:33:28;;;;;;;3.65;1.52;;;;;;;;;;5064816;28;20143;-72
2023/10/04 03:35:53;;;;;;;4.38;2.13;;;;;;;;;;5073341;28;20782;-72
2023/10/04 03:38:20;;;;;;;5.43;1.98;;;;;;;;;;5046047;28;20559;-72
2023/10/04 03:40:45;;;;;;;3.22;1.33;;;;;;;;;;5071409;28;20551;-72
2023/10/04 03:43:12;;;;;;;2.45;1.65;;;;;;;;;;5069003;28;20086;-71
2023/10/04 03:45:39;;;;;;;3.85;2.25;;;;;;;;;;5065910;28;20037;-72
2023/10/04 03:48:14;;;;;;;2.55;1.60;;;;;;;;;;5052872;28;20036;-71
2023/10/04 03:50:40;;;;;;;2.38;1.30;;;;;;;;;;5076491;28;20459;-72
2023/10/04 03:53:07;;;;;;;4.10;1.85;;;;;;;;;;5064398;28;20035;-72
2023/10/04 03:55:33;;;;;;;3.75;2.30;;;;;;;;;;5070765;28;20039;-72
2023/10/04 03:57:58;;;;;;;3.22;1.20;;;;;;;;;;5066076;28;20028;-71
2023/10/04 04:00:24;;;;;;;6.05;2.03;;;;;;;;;;5064430;28;20036;-72
2023/10/04 04:02:50;;;;;;;3.90;1.50;;;;;;;;;;5061136;28;20135;-72
2023/10/04 04:05:20;;;;;;;3.28;1.60;;;;;;;;;;5073392;28;20086;-72
2023/10/04 04:07:46;;;;;;;2.35;1.27;;;;;;;;;;5042397;28;20038;-71
2023/10/04 04:10:16;;;;;;;5.13;2.00;;;;;;;;;;5071532;28;20043;-71
2023/10/04 04:12:42;;;;;;;3.20;1.75;;;;;;;;;;5073222;28;20089;-71
2023/10/04 04:15:08;;;;;;;9.10;2.67;;;;;;;;;;5065868;28;20520;-71
2023/10/04 04:17:39;;;;;;;4.07;2.22;;;;;;;;;;5064537;28;20107;-71
2023/10/04 04:20:23;;;;;;;4.13;2.50;;;;;;;;;;5050047;28;20039;-71
2023/10/04 04:22:55;;;;;;;2.28;1.65;;;;;;;;;;5059738;28;20037;-71
2023/10/04 04:25:21;;;;;;;3.22;1.33;;;;;;;;;;5063645;28;20080;-71
2023/10/04 04:27:49;;;;;;;3.65;1.85;;;;;;;;;;5067169;28;20558;-71
2023/10/04 04:30:19;;;;;;;5.43;1.83;;;;;;;;;;5068649;28;20123;-71
2023/10/04 04:32:47;;;;;;;2.70;2.28;;;;;;;;;;5041009;28;20098;-70
2023/10/04 04:35:22;;;;;;;4.85;2.50;;;;;;;;;;5068087;28;20040;-71
2023/10/04 04:37:53;;;;;;;4.03;2.40;;;;;;;;;;5065854;28;20036;-71
2023/10/04 04:40:23;;;;;;;4.70;1.98;;;;;;;;;;5048148;28;20097;-71
2023/10/04 04:42:49;;;;;;;3.42;1.88;;;;;;;;;;5058229;28;20527;-71
2023/10/04 04:45:16;;;;;;;2.67;1.60;;;;;;;;;;5065859;28;20051;-71
2023/10/04 04:47:44;;;;;;;4.60;1.58;;;;;;;;;;5065317;28;20047;-71
2023/10/04 04:50:10;;;;;;;5.10;2.47;;;;;;;;;;5065012;28;20478;-70
2023/10/04 04:52:36;;;;;;;3.67;2.08;;;;;;;;;;5063865;28;20471;-71
2023/10/04 04:55:02;;;;;;;2.08;1.13;;;;;;;;;;5067907;28;20031;-71
2023/10/04 04:57:30;;;;;;;5.97;2.25;;;;;;;;;;5037400;28;20055;-71
2023/10/04 04:59:56;;;;;;;4.82;1.92;;;;;;;;;;5068327;28;20132;-71
2023/10/04 05:02:25;;;;;;;5.90;2.10;;;;;;;;;;5066159;28;20470;-73
2023/10/04 05:04:51;;;;;;;2.33;1.77;;;;;;;;;;5062070;28;20090;-73
2023/10/04 05:07:16;;;;;;;4.72;2.25;;;;;;;;;;5063988;28;20454;-71
2023/10/04 05:09:43;;;;;;;5.30;2.30;;;;;;;;;;5063972;28;20142;-70
2023/10/04 05:12:08;;;;;;;4.93;2.05;;;;;;;;;;5056019;28;20067;-70
2023/10/04 05:14:35;;;;;;;2.80;1.98;;;;;;;;;;5065595;28;20043;-71
2023/10/04 05:17:01;;;;;;;2.88;1.83;;;;;;;;;;5067286;28;20040;-71
2023/10/04 05:19:26;;;;;;;4.72;1.92;;;;;;;;;;5067944;28;20032;-71
2023/10/04 05:21:51;;;;;;;4.45;1.83;;;;;;;;;;5067757;28;20398;-71
2023/10/04 05:24:17;;;;;;;3.30;1.75;;;;;;;;;;5068522;28;20036;-71
2023/10/04 05:26:42;;;;;;;2.22;1.52;;;;;;;;;;5057781;28;20048;-72
2023/10/04 05:29:08;;;;;;;6.15;2.72;;;;;;;;;;5064028;28;20064;-71
2023/10/04 05:31:33;;;;;;;3.80;2.47;;;;;;;;;;5043468;28;20431;-71
2023/10/04 05:33:59;;;;;;;4.55;2.70;;;;;;;;;;5063377;28;20097;-71
2023/10/04 05:36:24;;;;;;;4.68;1.52;;;;;;;;;;5066592;28;20073;-72
2023/10/04 05:38:50;;;;;;;2.55;1.58;;;;;;;;;;5054374;28;20040;-71
2023/10/04 05:41:15;;;;;;;4.20;1.85;;;;;;;;;;5067836;28;20108;-71
2023/10/04 05:43:41;;;;;;;4.63;1.70;;;;;;;;;;5062791;28;20501;-71
2023/10/04 05:46:06;;;;;;;3.35;2.00;;;;;;;;;;5061798;28;20048;-71
2023/10/04 05:48:34;;;;;;;2.80;2.10;;;;;;;;;;5064529;28;20024;-71
2023/10/04 05:51:00;;;;;;;4.32;2.38;;;;;;;;;;5064303;28;20119;-71
2023/10/04 05:53:26;;;;;;;3.42;1.70;;;;;;;;;;5055013;28;20405;-71
2023/10/04 05:55:52;;;;;;;3.50;1.85;;;;;;;;;;5066265;28;20037;-71
2023/10/04 05:58:18;;;;;;;3.47;2.10;;;;;;;;;;5067333;28;20039;-72
2023/10/04 06:00:54;;;;;;;3.65;1.80;;;;;;;;;;5062230;28;20136;-72
2023/10/04 06:03:20;;;;;;;4.72;2.50;;;;;;;;;;5065212;28;20033;-71
2023/10/04 06:05:45;;;;;;;2.72;1.50;;;;;;;;;;5069684;28;20028;-72
2023/10/04 06:08:16;;;;;;;5.25;2.22;;;;;;;;;;5055581;28;20046;-71
2023/10/04 06:10:45;;;;;;;6.70;2.40;;;;;;;;;;5063229;28;20625;-71
2023/10/04 06:13:13;;;;;;;6.35;2.60;;;;;;;;;;5062939;28;20051;-71
2023/10/04 06:15:44;;;;;;;6.05;3.10;;;;;;;;;;5067898;28;20047;-71
2023/10/04 06:18:11;;;;;;;2.80;1.48;;;;;;;;;;5068781;28;20039;-73
2023/10/04 06:20:38;;;;;;;6.63;2.75;;;;;;;;;;5056180;28;20063;-71
2023/10/04 06:23:05;;;;;;;5.28;2.97;;;;;;;;;;5057717;28;20093;-71
2023/10/04 06:25:33;;;;;;;4.57;2.22;;;;;;;;;;5064353;28;20045;-71
2023/10/04 06:28:00;;;;;;;4.72;2.58;;;;;;;;;;5066385;28;20035;-71
2023/10/04 06:30:31;;;;;;;4.53;1.80;;;;;;;;;;5068979;28;20496;-71
2023/10/04 06:33:04;;;;;;;4.90;2.38;;;;;;;;;;5042572;28;20111;-71
2023/10/04 06:35:29;;;;;;;4.75;2.78;;;;;;;;;;5067894;28;20468;-71
2023/10/04 06:37:59;;;;;;;2.35;1.90;;;;;;;;;;5066270;28;20127;-70
2023/10/04 06:40:26;;;;;;;5.70;3.40;;;;;;;;;;5063783;28;20044;-71
2023/10/04 06:42:53;;;;;;;4.95;2.78;;;;;;;;;;5072057;28;20031;-71
2023/10/04 06:45:20;;;;;;;2.85;1.70;;;;;;;;;;5021469;28;20049;-71
2023/10/04 06:47:49;;;;;;;2.80;1.55;;;;;;;;;;5061600;28;20046;-71
2023/10/04 06:50:18;;;;;;;4.25;2.42;;;;;;;;;;5062141;28;20109;-71
2023/10/04 06:52:48;;;;;;;7.28;3.33;;;;;;;;;;5064337;28;20036;-71
2023/10/04 06:55:15;;;;;;;3.42;2.42;;;;;;;;;;5064959;28;20115;-71
2023/10/04 06:57:43;;;;;;;7.35;3.25;;;;;;;;;;5049756;28;20043;-71
2023/10/04 07:00:14;;;;;;;4.28;1.88;;;;;;;;;;5059714;28;20044;-72
2023/10/04 07:02:59;;;;;;;4.18;1.83;;;;;;;;;;5067700;28;20036;-72
2023/10/04 07:05:31;;;;;;;6.38;3.42;;;;;;;;;;5061085;28;20429;-71
2023/10/04 07:07:57;;;;;;;2.45;1.63;;;;;;;;;;5067058;28;20039;-71
2023/10/04 07:10:25;;;;;;;4.80;2.05;;;;;;;;;;5052434;28;20313;-71
2023/10/04 07:12:51;;;;;;;3.80;2.00;;;;;;;;;;5070567;28;20114;-71
2023/10/04 07:15:18;;;;;;;4.05;2.30;;;;;;;;;;5057003;28;20136;-71
2023/10/04 07:17:44;;;;;;;6.22;3.10;;;;;;;;;;5064436;28;20102;-70
2023/10/04 07:20:14;;;;;;;2.35;1.77;;;;;;;;;;5063980;28;20047;-71
2023/10/04 07:22:45;;;;;;;4.82;3.28;;;;;;;;;;5054237;28;20116;-71
2023/10/04 07:25:12;;;;;;;7.68;3.17;;;;;;;;;;5064530;28;20033;-71
2023/10/04 07:27:42;;;;;;;5.20;3.00;;;;;;;;;;5062420;28;20033;-71
2023/10/04 07:30:08;;;;;;;3.03;2.00;;;;;;;;;;5040352;28;20048;-71
2023/10/04 07:32:33;;;;;;;3.25;1.95;;;;;;;;;;5062103;28;20036;-71
2023/10/04 07:35:00;;;;;;;5.00;2.88;;;;;;;;;;5067494;28;20896;-71
2023/10/04 07:37:26;;;;;;;4.45;2.20;;;;;;;;;;5052560;28;20116;-71
2023/10/04 07:39:52;;;;;;;5.75;3.38;;;;;;;;;;5071543;28;20504;-72
2023/10/04 07:42:20;;;;;;;6.45;3.20;;;;;;;;;;5067133;28;20032;-71
2023/10/04 07:44:46;;;;;;;6.05;3.60;;;;;;;;;;5065267;28;20122;-71
2023/10/04 07:47:11;;;;;;;3.28;2.40;;;;;;;;;;5063777;28;20063;-71
2023/10/04 07:49:37;;;;;;;7.45;3.28;;;;;;;;;;5061318;28;20134;-71
2023/10/04 07:52:03;;;;;;;3.50;2.60;;;;;;;;;;5040732;28;20039;-72
2023/10/04 07:54:29;;;;;;;8.15;3.20;;;;;;;;;;5068258;28;20036;-71
2023/10/04 07:56:55;;;;;;;4.80;2.40;;;;;;;;;;5062853;28;20111;-71
2023/10/04 07:59:20;;;;;;;5.80;2.78;;;;;;;;;;5062269;28;20116;-71
2023/10/04 08:01:46;;;;;;;6.60;3.35;;;;;;;;;;5064593;28;20056;-71
2023/10/04 08:04:11;;;;;;;7.07;3.38;;;;;;;;;;5063207;28;20045;-71
2023/10/04 08:06:40;;;;;;;6.53;3.75;;;;;;;;;;5053450;28;20505;-71
2023/10/04 08:09:06;;;;;;;3.03;1.92;;;;;;;;;;5064791;28;20442;-72
2023/10/04 08:11:33;;;;;;;5.22;3.15;;;;;;;;;;5067283;28;20036;-71
2023/10/04 08:13:59;;;;;;;8.75;3.33;;;;;;;;;;5062421;28;20040;-71
2023/10/04 08:16:27;;;;;;;6.32;3.30;;;;;;;;;;5066881;28;20496;-72
2023/10/04 08:18:55;;;;;;;4.40;2.90;;;;;;;;;;5054032;28;20052;-71
2023/10/04 08:21:22;;;;;;;4.53;2.78;;;;;;;;;;5063488;28;20055;-72
2023/10/04 08:23:49;;;;;;;7.25;2.70;;;;;;;;;;5064521;28;20508;-72
2023/10/04 08:26:15;;;;;;;5.90;2.70;;;;;;;;;;5066044;28;20055;-71
2023/10/04 08:28:41;;;;;;;7.47;3.85;;;;;;;;;;5064399;28;20688;-71
2023/10/04 08:31:08;;;;;;;7.18;2.88;;;;;;;;;;5047090;28;20040;-71
2023/10/04 08:33:34;;;;;;;6.57;2.97;;;;;;;;;;5053343;28;20036;-72
2023/10/04 08:35:59;;;;;;;6.03;3.30;;;;;;;;;;5062311;28;20036;-71
2023/10/04 08:38:25;;;;;;;7.72;3.85;;;;;;;;;;5061386;28;20036;-71
2023/10/04 08:40:53;;;;;;;8.73;3.53;;;;;;;;;;5064612;28;20028;-71
2023/10/04 08:43:18;;;;;;;4.65;2.40;;;;;;;;;;5058779;28;20040;-72
2023/10/04 08:45:46;;;;;;;5.72;3.17;;;;;;;;;;5058479;28;20037;-72
2023/10/04 08:48:12;;;;;;;4.57;2.70;;;;;;;;;;5038301;28;20041;-71
2023/10/04 08:51:33;;;;;;;7.93;3.28;;;;;;;;;;5064957;28;20111;-72
2023/10/04 08:54:26;;;;;;;7.03;2.75;;;;;;;;;;5019209;28;20115;-75
2023/10/04 08:57:17;;;;;;;3.38;2.13;;;;;;;;;;5037862;28;20046;-72
2023/10/04 08:59:44;;;;;;;2.90;2.10;;;;;;;;;;5068133;28;20079;-74
2023/10/04 09:02:13;;;;;;;5.15;2.90;;;;;;;;;;5066496;28;20875;-72
2023/10/04 09:04:39;;;;;;;6.55;2.65;;;;;;;;;;5064581;28;20032;-72
2023/10/04 09:07:08;;;;;;;6.47;3.05;;;;;;;;;;5053162;28;20034;-72
2023/10/04 09:09:35;;;;;;;8.68;3.70;;;;;;;;;;5061736;28;20075;-71
2023/10/04 09:12:01;;;;;;;4.72;2.70;;;;;;;;;;5064044;28;20465;-72
2023/10/04 09:14:27;;;;;;;3.03;2.17;;;;;;;;;;5067196;28;20028;-73
2023/10/04 09:17:06;;;;;;;3.83;2.30;;;;;;;;;;5065765;28;20416;-73
2023/10/04 09:19:32;;;;;;;3.95;2.75;;;;;;;;;;5053601;28;20035;-72
2023/10/04 09:22:04;;;;;;;5.65;3.25;;;;;;;;;;5065363;28;20059;-72
2023/10/04 09:24:29;;;;;;;3.80;2.05;;;;;;;;;;5062316;28;20033;-72
2023/10/04 09:26:56;;;;;;;3.15;2.63;;;;;;;;;;5060237;28;20039;-72
2023/10/04 09:29:35;;;;;;;5.10;2.97;;;;;;;;;;5061761;28;20124;-72
2023/10/04 09:32:02;;;;;;;7.72;3.78;;;;;;;;;;5056556;28;20036;-72
2023/10/04 09:34:29;;;;;;;6.93;3.55;;;;;;;;;;5061492;28;20040;-72
2023/10/04 09:36:55;;;;;;;6.75;3.08;;;;;;;;;;5066019;28;20036;-71
2023/10/04 09:39:31;;;;;;;4.93;2.80;;;;;;;;;;5063633;28;20634;-71
2023/10/04 09:41:57;;;;;;;3.72;2.28;;;;;;;;;;5060866;28;20054;-72
2023/10/04 09:44:29;;;;;;;5.80;3.40;;;;;;;;;;5049181;28;20043;-72
2023/10/04 09:47:03;;;;;;;5.45;3.15;;;;;;;;;;5064929;28;20094;-72
2023/10/04 09:49:34;;;;;;;4.90;2.88;;;;;;;;;;5048140;28;20080;-72
2023/10/04 09:52:12;;;;;;;6.22;3.00;;;;;;;;;;5068421;28;20940;-72
2023/10/04 09:54:38;;;;;;;5.43;2.78;;;;;;;;;;5056869;28;20064;-72
2023/10/04 09:57:07;;;;;;;4.97;2.90;;;;;;;;;;5063299;28;20415;-72
2023/10/04 09:59:34;;;;;;;4.00;2.53;;;;;;;;;;5067489;28;20102;-72
2023/10/04 10:02:00;;;;;;;3.90;2.40;;;;;;;;;;5042126;28;20147;-72
2023/10/04 10:04:31;;;;;;;6.47;2.88;;;;;;;;;;5066002;28;20043;-72
2023/10/04 10:07:13;;;;;;;2.83;2.38;;;;;;;;;;5070684;28;20044;-75
2023/10/04 10:10:01;;;;;;;5.90;3.13;;;;;;;;;;5036746;28;20750;-73
2023/10/04 10:12:31;;;;;;;5.85;2.53;;;;;;;;;;5068359;28;20067;-72
2023/10/04 10:15:00;;;;;;;5.38;2.55;;;;;;;;;;5063554;28;20037;-73
2023/10/04 10:17:26;;;;;;;2.78;2.28;;;;;;;;;;5066024;28;20189;-72
2023/10/04 10:19:52;;;;;;;5.93;3.00;;;;;;;;;;5052762;28;20040;-72
2023/10/04 10:22:19;;;;;;;3.42;2.20;;;;;;;;;;5064109;28;20037;-72
2023/10/04 10:25:14;;;;;;;5.85;2.80;;;;;;;;;;5046428;28;20119;-72
2023/10/04 10:27:41;;;;;;;2.33;2.13;;;;;;;;;;5040587;28;20058;-73
2023/10/04 10:30:11;;;;;;;4.15;2.63;;;;;;;;;;5056472;28;20039;-73
2023/10/04 10:32:48;;;;;;;4.90;3.05;;;;;;;;;;5062712;28;20041;-73
2023/10/04 10:35:34;;;;;;;3.70;2.47;;;;;;;;;;5043924;28;20436;-72
2023/10/04 10:38:27;;;;;;;3.88;2.10;;;;;;;;;;5058907;28;20115;-74
2023/10/04 10:40:52;;;;;;;6.25;2.88;;;;;;;;;;5044420;28;20421;-73
2023/10/04 10:43:18;;;;;;;4.72;2.50;;;;;;;;;;5061823;28;20085;-73
2023/10/04 10:45:44;;;;;;;3.20;2.10;;;;;;;;;;5065502;28;20060;-73
2023/10/04 10:48:13;;;;;;;6.63;2.80;;;;;;;;;;5063241;28;20131;-73
2023/10/04 10:50:41;;;;;;;5.13;2.55;;;;;;;;;;5065495;28;20028;-73
2023/10/04 10:53:10;;;;;;;6.60;2.72;;;;;;;;;;5059865;28;20052;-73
2023/10/04 10:55:38;;;;;;;4.38;2.47;;;;;;;;;;5052866;28;20032;-73
2023/10/04 10:58:04;;;;;;;3.40;2.33;;;;;;;;;;5064362;28;21336;-73
2023/10/04 11:00:32;;;;;;;3.17;2.53;;;;;;;;;;5064232;28;20072;-73
2023/10/04 11:02:58;;;;;;;7.43;3.25;;;;;;;;;;5047921;28;20530;-73
2023/10/04 11:05:25;;;;;;;3.78;2.20;;;;;;;;;;5059707;28;20033;-73
2023/10/04 11:07:53;;;;;;;6.38;2.42;;;;;;;;;;5064108;28;20028;-73
2023/10/04 11:10:20;;;;;;;3.85;2.45;;;;;;;;;;5056997;28;20767;-72
2023/10/04 11:12:46;;;;;;;5.00;2.50;;;;;;;;;;5068451;28;20079;-73
2023/10/04 11:15:12;;;;;;;4.43;2.45;;;;;;;;;;5048579;28;20043;-73
2023/10/04 11:17:39;;;;;;;4.43;2.33;;;;;;;;;;5064607;28;20029;-73
2023/10/04 11:20:09;;;;;;;3.55;2.63;;;;;;;;;;5066193;28;20127;-73
2023/10/04 11:22:40;;;;;;;6.95;2.88;;;;;;;;;;5070962;28;20093;-73
2023/10/04 11:25:08;;;;;;;5.25;2.72;;;;;;;;;;5043029;28;20057;-73
2023/10/04 11:27:40;;;;;;;9.65;3.00;;;;;;;;;;5072744;28;20043;-73
2023/10/04 11:30:07;;;;;;;6.15;2.20;;;;;;;;;;5065754;28;20060;-73
2023/10/04 11:32:32;;;;;;;5.60;2.70;;;;;;;;;;5064588;28;20076;-73
2023/10/04 11:34:59;;;;;;;7.22;3.20;;;;;;;;;;5064918;28;20044;-73
2023/10/04 11:37:28;;;;;;;4.72;2.47;;;;;;;;;;5056421;28;20127;-73
2023/10/04 11:39:55;;;;;;;4.22;2.75;;;;;;;;;;5062217;28;20044;-75
2023/10/04 11:42:24;;;;;;;4.03;2.38;;;;;;;;;;5064208;28;20067;-75
2023/10/04 11:44:50;;;;;;;5.43;2.58;;;;;;;;;;5062370;28;20043;-75
2023/10/04 11:47:31;;;;;;;5.72;2.33;;;;;;;;;;5065833;28;20127;-75
2023/10/04 11:50:01;;;;;;;3.58;2.38;;;;;;;;;;5053549;28;20437;-75
2023/10/04 11:52:30;;;;;;;3.45;2.38;;;;;;;;;;5063211;28;20047;-75
2023/10/04 11:54:58;;;;;;;5.70;2.53;;;;;;;;;;5067078;28;20043;-75
2023/10/04 11:57:25;;;;;;;4.93;1.92;;;;;;;;;;5069794;28;20194;-76
2023/10/04 11:59:51;;;;;;;4.60;2.25;;;;;;;;;;5066056;28;20108;-75
2023/10/04 12:02:16;;;;;;;5.15;2.30;;;;;;;;;;5065597;28;20131;-76
2023/10/04 12:04:41;;;;;;;5.45;2.47;;;;;;;;;;5033392;28;20059;-75
2023/10/04 12:07:07;;;;;;;4.50;2.30;;;;;;;;;;5064683;28;20051;-75
2023/10/04 12:09:36;;;;;;;4.40;2.38;;;;;;;;;;5066405;28;20671;-75
2023/10/04 12:12:03;;;;;;;3.53;2.17;;;;;;;;;;5065780;28;20058;-75
2023/10/04 12:14:32;;;;;;;5.53;2.50;;;;;;;;;;5065212;28;20110;-75
2023/10/04 12:17:02;;;;;;;6.57;2.63;;;;;;;;;;5057238;28;20130;-75
2023/10/04 12:19:30;;;;;;;4.35;2.72;;;;;;;;;;5049647;28;20046;-75
2023/10/04 12:21:56;;;;;;;4.40;2.20;;;;;;;;;;5068603;28;20039;-75
2023/10/04 12:24:22;;;;;;;3.40;2.20;;;;;;;;;;5069095;28;20366;-75
2023/10/04 12:26:55;;;;;;;4.18;2.50;;;;;;;;;;5066615;28;20094;-75
2023/10/04 12:29:21;;;;;;;6.80;2.60;;;;;;;;;;5065109;28;20056;-75
2023/10/04 12:31:47;;;;;;;6.97;3.00;;;;;;;;;;5055945;28;20036;-75
2023/10/04 12:34:12;;;;;;;4.43;2.38;;;;;;;;;;5069227;28;20089;-75
2023/10/04 12:36:39;;;;;;;7.00;3.08;;;;;;;;;;5067047;28;20032;-72
2023/10/04 12:39:06;;;;;;;6.65;2.70;;;;;;;;;;5064418;28;20051;-75
2023/10/04 12:41:32;;;;;;;4.53;2.78;;;;;;;;;;5066899;28;20052;-75
2023/10/04 12:43:57;;;;;;;6.38;2.40;;;;;;;;;;5066118;28;20033;-76
2023/10/04 12:46:23;;;;;;;5.60;2.42;;;;;;;;;;5055172;28;20045;-75
2023/10/04 12:48:48;;;;;;;3.53;2.40;;;;;;;;;;5063770;28;20040;-75
2023/10/04 12:51:14;;;;;;;4.93;2.60;;;;;;;;;;5063831;28;20594;-75
2023/10/04 12:53:39;;;;;;;6.82;2.60;;;;;;;;;;5046315;28;20058;-76
2023/10/04 12:56:06;;;;;;;4.63;2.40;;;;;;;;;;5058582;28;20048;-75
2023/10/04 12:58:33;;;;;;;5.95;2.70;;;;;;;;;;5057807;28;20475;-75
2023/10/04 13:00:58;;;;;;;8.05;2.70;;;;;;;;;;5063799;28;20436;-73
2023/10/04 13:03:24;;;;;;;4.43;2.35;;;;;;;;;;5060669;28;20036;-73
2023/10/04 13:05:49;;;;;;;5.20;2.60;;;;;;;;;;5065753;28;20555;-74
2023/10/04 13:08:15;;;;;;;5.40;2.92;;;;;;;;;;5063762;28;20028;-74
2023/10/04 13:10:41;;;;;;;3.78;2.40;;;;;;;;;;5066288;28;20508;-74
2023/10/04 13:13:07;;;;;;;5.15;2.60;;;;;;;;;;5062638;28;20040;-75
2023/10/04 13:15:33;;;;;;;4.88;2.30;;;;;;;;;;5061697;28;20041;-75
2023/10/04 13:17:58;;;;;;;4.40;2.50;;;;;;;;;;5067112;28;20032;-74
2023/10/04 13:20:26;;;;;;;6.28;2.60;;;;;;;;;;5061722;28;20032;-74
2023/10/04 13:22:53;;;;;;;4.97;2.50;;;;;;;;;;5061403;28;20114;-74
2023/10/04 13:25:20;;;;;;;4.15;2.50;;;;;;;;;;5066846;28;20032;-74
2023/10/04 13:27:45;;;;;;;4.30;2.30;;;;;;;;;;5032717;28;20032;-75
2023/10/04 13:30:14;;;;;;;4.32;2.65;;;;;;;;;;5066453;28;21249;-75
2023/10/04 13:32:39;;;;;;;4.00;2.40;;;;;;;;;;5062396;28;20028;-74
2023/10/04 13:35:08;;;;;;;4.75;2.40;;;;;;;;;;5048015;28;20524;-74
2023/10/04 13:37:33;;;;;;;5.88;2.50;;;;;;;;;;5066414;28;20732;-75
2023/10/04 13:40:08;;;;;;;4.75;2.40;;;;;;;;;;5061602;28;20044;-75
2023/10/04 13:42:34;;;;;;;4.65;2.50;;;;;;;;;;5037126;28;20044;-75
2023/10/04 13:44:59;;;;;;;4.50;2.40;;;;;;;;;;5065796;28;20377;-74
2023/10/04 13:47:25;;;;;;;3.78;2.30;;;;;;;;;;5065015;28;20686;-75
2023/10/04 13:49:51;;;;;;;6.65;2.60;;;;;;;;;;5047996;28;20037;-75
2023/10/04 13:52:16;;;;;;;4.30;2.30;;;;;;;;;;5061704;28;20051;-75
2023/10/04 13:54:43;;;;;;;4.53;2.28;;;;;;;;;;5056269;28;20028;-75
2023/10/04 13:57:09;;;;;;;5.15;2.60;;;;;;;;;;5051169;28;20048;-75
2023/10/04 13:59:35;;;;;;;4.78;2.42;;;;;;;;;;5066950;28;20028;-75
2023/10/04 14:02:05;;;;;;;5.00;2.45;;;;;;;;;;5062813;28;20558;-75
2023/10/04 14:04:30;;;;;;;5.55;2.88;;;;;;;;;;5066294;28;20755;-75
2023/10/04 14:06:56;;;;;;;5.03;2.78;;;;;;;;;;5065539;28;20114;-75
2023/10/04 14:09:22;;;;;;;5.43;2.67;;;;;;;;;;5060259;28;20550;-75
2023/10/04 14:11:49;;;;;;;6.68;2.58;;;;;;;;;;5047367;28;20398;-75
2023/10/04 14:14:14;;;;;;;6.97;2.72;;;;;;;;;;5062841;28;20138;-74
2023/10/04 14:16:45;;;;;;;3.88;2.40;;;;;;;;;;5058459;28;20045;-75
2023/10/04 14:19:11;;;;;;;4.15;2.15;;;;;;;;;;5068945;28;20036;-75
2023/10/04 14:21:37;;;;;;;7.75;2.33;;;;;;;;;;5065034;28;20495;-75
2023/10/04 14:24:05;;;;;;;4.95;2.38;;;;;;;;;;5055148;28;20032;-75
2023/10/04 14:26:30;;;;;;;4.35;2.03;;;;;;;;;;5058364;28;20033;-75
2023/10/04 14:28:56;;;;;;;5.43;2.67;;;;;;;;;;5056596;28;20868;-75
2023/10/04 14:31:26;;;;;;;5.32;2.65;;;;;;;;;;5068010;28;20046;-75
2023/10/04 14:33:52;;;;;;;4.87;2.63;;;;;;;;;;5065225;28;20658;-75
2023/10/04 14:36:17;;;;;;;4.30;2.42;;;;;;;;;;5035407;28;20146;-75
2023/10/04 14:38:43;;;;;;;5.47;2.67;;;;;;;;;;5050630;28;20069;-75
2023/10/04 14:41:09;;;;;;;5.05;2.40;;;;;;;;;;5065464;28;20396;-75
2023/10/04 14:43:35;;;;;;;4.80;2.13;;;;;;;;;;5061452;28;20029;-76
2023/10/04 14:46:03;;;;;;;4.50;2.75;;;;;;;;;;5064930;28;20036;-75
2023/10/04 14:48:29;;;;;;;5.15;2.63;;;;;;;;;;5068308;28;20044;-75